createdAt,value
2023-02-28T00:01:50.622Z,-0.03
2023-02-28T00:04:20.341Z,-0.05
2023-02-28T00:06:48.669Z,-0.05
2023-02-28T00:09:17.013Z,-0.09
2023-02-28T00:11:45.297Z,-0.14
2023-02-28T00:14:13.628Z,-0.23
2023-02-28T00:16:42.025Z,-0.29
2023-02-28T00:19:10.484Z,-0.30
2023-02-28T00:21:41.774Z,-0.35
2023-02-28T00:24:10.090Z,-0.37
2023-02-28T00:26:38.389Z,-0.44
2023-02-28T00:29:06.739Z,-0.49
2023-02-28T00:31:35.064Z,-0.52
2023-02-28T00:34:03.445Z,-0.50
2023-02-28T00:36:31.767Z,-0.50
2023-02-28T00:39:01.649Z,-0.48
2023-02-28T00:41:30.232Z,-0.47
2023-02-28T00:43:58.835Z,-0.53
2023-02-28T00:46:27.135Z,-0.55
2023-02-28T00:48:55.493Z,-0.56
2023-02-28T00:51:24.025Z,-0.58
2023-02-28T00:53:52.367Z,-0.60
2023-02-28T00:56:22.900Z,-0.66
2023-02-28T00:58:51.249Z,-0.69
2023-02-28T01:01:19.595Z,-0.70
2023-02-28T01:03:47.959Z,-0.74
2023-02-28T01:06:16.293Z,-0.79
2023-02-28T01:08:44.668Z,-0.82
2023-02-28T01:11:14.339Z,-0.87
2023-02-28T01:13:44.903Z,-0.89
2023-02-28T01:16:13.286Z,-0.91
2023-02-28T01:18:42.456Z,-0.89
2023-02-28T01:21:13.868Z,-0.89
2023-02-28T01:23:42.912Z,-0.90
2023-02-28T01:26:13.072Z,-0.94
2023-02-28T01:28:41.536Z,-0.98
2023-02-28T01:31:12.430Z,-1.01
2023-02-28T01:33:41.394Z,-1.00
2023-02-28T01:36:13.228Z,-0.97
2023-02-28T01:38:42.072Z,-1.00
2023-02-28T01:41:16.376Z,-0.98
2023-02-28T01:44:05.151Z,-0.98
2023-02-28T01:46:37.677Z,-1.02
2023-02-28T01:49:10.788Z,-1.02
2023-02-28T01:51:46.604Z,-1.00
2023-02-28T01:54:18.179Z,-1.01
2023-02-28T01:56:49.886Z,-1.12
2023-02-28T01:59:26.827Z,-1.18
2023-02-28T02:01:57.076Z,-1.22
2023-02-28T02:04:27.772Z,-1.23
2023-02-28T02:06:56.909Z,-1.21
2023-02-28T02:09:25.221Z,-1.22
2023-02-28T02:11:53.663Z,-1.22
2023-02-28T02:14:46.143Z,-1.21
2023-02-28T02:17:28.762Z,-1.30
2023-02-28T02:20:36.516Z,-1.35
2023-02-28T02:23:51.681Z,-1.36
2023-02-28T02:26:47.410Z,-1.39
2023-02-28T02:29:49.249Z,-1.41
2023-02-28T02:32:57.984Z,-1.37
2023-02-28T02:35:31.750Z,-1.36
2023-02-28T02:38:08.457Z,-1.44
2023-02-28T02:40:44.619Z,-1.56
2023-02-28T02:43:19.255Z,-1.60
2023-02-28T02:45:52.047Z,-1.63
2023-02-28T02:48:23.756Z,-1.72
2023-02-28T02:50:57.939Z,-1.80
2023-02-28T02:53:32.269Z,-1.85
2023-02-28T02:56:03.434Z,-1.90
2023-02-28T02:58:35.837Z,-1.91
2023-02-28T03:01:07.034Z,-1.83
2023-02-28T03:03:36.429Z,-1.83
2023-02-28T03:06:07.073Z,-1.86
2023-02-28T03:08:38.069Z,-1.85
2023-02-28T03:11:10.908Z,-1.89
2023-02-28T03:13:54.490Z,-1.87
2023-02-28T03:16:37.477Z,-1.85
2023-02-28T03:19:21.972Z,-1.83
2023-02-28T03:22:00.014Z,-1.77
2023-02-28T03:24:38.153Z,-1.81
2023-02-28T03:27:11.500Z,-1.84
2023-02-28T03:29:44.960Z,-1.85
2023-02-28T03:32:22.562Z,-1.85
2023-02-28T03:35:00.317Z,-1.84
2023-02-28T03:37:35.609Z,-1.88
2023-02-28T03:40:09.408Z,-1.90
2023-02-28T03:42:40.526Z,-1.91
2023-02-28T03:45:15.247Z,-1.96
2023-02-28T03:47:49.543Z,-2.08
2023-02-28T03:50:22.495Z,-2.30
2023-02-28T03:53:02.051Z,-2.47
2023-02-28T03:55:36.734Z,-2.68
2023-02-28T03:58:13.354Z,-2.82
2023-02-28T04:00:46.018Z,-2.93
2023-02-28T04:03:15.768Z,-3.00
2023-02-28T04:05:52.274Z,-2.96
2023-02-28T04:08:23.072Z,-2.94
2023-02-28T04:10:59.764Z,-2.92
2023-02-28T04:13:28.150Z,-2.94
2023-02-28T04:15:56.535Z,-2.99
2023-02-28T04:18:25.070Z,-2.96
2023-02-28T04:20:53.404Z,-2.96
2023-02-28T04:23:23.103Z,-3.01
2023-02-28T04:25:52.214Z,-3.11
2023-02-28T04:28:20.543Z,-3.28
2023-02-28T04:30:48.977Z,-3.25
2023-02-28T04:33:17.297Z,-3.13
2023-02-28T04:35:45.664Z,-3.07
2023-02-28T04:38:13.980Z,-2.98
2023-02-28T04:40:43.691Z,-2.98
2023-02-28T04:43:12.178Z,-2.98
2023-02-28T04:45:40.531Z,-2.98
2023-02-28T04:48:08.855Z,-2.96
2023-02-28T04:50:39.193Z,-2.97
2023-02-28T04:53:07.572Z,-3.04
2023-02-28T04:55:36.006Z,-2.99
2023-02-28T04:58:05.997Z,-2.94
2023-02-28T05:00:34.432Z,-2.88
2023-02-28T05:03:02.999Z,-2.85
2023-02-28T05:05:31.528Z,-2.84
2023-02-28T05:07:59.879Z,-2.84
2023-02-28T05:10:28.241Z,-2.86
2023-02-28T05:12:56.831Z,-2.94
2023-02-28T05:15:26.872Z,-2.95
2023-02-28T05:17:55.329Z,-3.01
2023-02-28T05:20:23.700Z,-3.04
2023-02-28T05:22:52.836Z,-3.07
2023-02-28T05:25:23.640Z,-3.09
2023-02-28T05:27:59.337Z,-3.17
2023-02-28T05:30:29.353Z,-3.24
2023-02-28T05:32:57.805Z,-3.29
2023-02-28T05:35:29.036Z,-3.41
2023-02-28T05:37:57.347Z,-3.54
2023-02-28T05:40:25.893Z,-3.56
2023-02-28T05:42:54.269Z,-3.46
2023-02-28T05:45:22.585Z,-3.36
2023-02-28T05:47:55.471Z,-3.36
2023-02-28T05:50:23.878Z,-3.39
2023-02-28T05:52:52.631Z,-3.42
2023-02-28T05:55:21.006Z,-3.39
2023-02-28T05:57:49.573Z,-3.33
2023-02-28T06:00:18.782Z,-3.27
2023-02-28T06:02:47.177Z,-3.23
2023-02-28T06:05:18.024Z,-3.21
2023-02-28T06:07:46.431Z,-3.16
2023-02-28T06:10:15.294Z,-3.12
2023-02-28T06:12:43.904Z,-3.09
2023-02-28T06:15:15.337Z,-3.09
2023-02-28T06:17:44.389Z,-3.05
2023-02-28T06:20:14.722Z,-3.03
2023-02-28T06:22:44.404Z,-3.00
2023-02-28T06:25:13.138Z,-2.97
2023-02-28T06:27:41.443Z,-2.93
2023-02-28T06:30:11.749Z,-2.92
2023-02-28T06:32:40.641Z,-2.90
2023-02-28T06:35:09.705Z,-2.87
2023-02-28T06:37:40.222Z,-2.83
2023-02-28T06:40:13.966Z,-2.85
2023-02-28T06:42:42.316Z,-2.82
2023-02-28T06:45:12.027Z,-2.77
2023-02-28T06:47:42.012Z,-2.66
2023-02-28T06:50:12.777Z,-2.60
2023-02-28T06:52:41.406Z,-2.51
2023-02-28T06:55:11.637Z,-2.42
2023-02-28T06:57:40.334Z,-2.35
2023-02-28T07:00:10.669Z,-2.28
2023-02-28T07:02:39.708Z,-2.23
2023-02-28T07:05:08.840Z,-2.14
2023-02-28T07:07:39.074Z,-2.09
2023-02-28T07:10:08.542Z,-2.01
2023-02-28T07:12:38.493Z,-1.89
2023-02-28T07:15:08.067Z,-1.80
2023-02-28T07:17:36.515Z,-1.71
2023-02-28T07:20:06.111Z,-1.62
2023-02-28T07:22:34.801Z,-1.55
2023-02-28T07:25:03.250Z,-1.48
2023-02-28T07:27:35.416Z,-1.41
2023-02-28T07:30:06.038Z,-1.30
2023-02-28T07:32:34.382Z,-1.27
2023-02-28T07:35:02.710Z,-1.23
2023-02-28T07:37:37.587Z,-1.19
2023-02-28T07:40:09.302Z,-1.16
2023-02-28T07:42:37.849Z,-1.16
2023-02-28T07:45:12.299Z,-1.19
2023-02-28T07:47:41.320Z,-1.16
2023-02-28T07:50:12.830Z,-1.11
2023-02-28T07:52:42.138Z,-1.06
2023-02-28T07:55:11.977Z,-0.97
2023-02-28T07:57:40.444Z,-0.89
2023-02-28T08:00:13.661Z,-0.86
2023-02-28T08:02:42.503Z,-0.80
2023-02-28T08:05:11.236Z,-0.70
2023-02-28T08:07:40.156Z,-0.59
2023-02-28T08:10:10.881Z,-0.51
2023-02-28T08:12:39.256Z,-0.46
2023-02-28T08:15:11.681Z,-0.40
2023-02-28T08:17:40.404Z,-0.37
2023-02-28T08:20:11.286Z,-0.33
2023-02-28T08:22:39.655Z,-0.29
2023-02-28T08:25:09.286Z,-0.24
2023-02-28T08:27:38.110Z,-0.18
2023-02-28T08:30:07.729Z,-0.09
2023-02-28T08:32:37.760Z,0.00
2023-02-28T08:35:07.893Z,0.10
2023-02-28T08:37:36.214Z,0.16
2023-02-28T08:40:05.560Z,0.27
2023-02-28T08:42:34.701Z,0.36
2023-02-28T08:45:03.218Z,0.48
2023-02-28T08:47:31.913Z,0.56
2023-02-28T08:50:01.540Z,0.67
2023-02-28T08:52:29.847Z,0.80
2023-02-28T08:54:58.497Z,0.92
2023-02-28T08:57:28.398Z,1.02
2023-02-28T08:59:56.895Z,1.10
2023-02-28T09:02:25.268Z,1.21
2023-02-28T09:04:53.562Z,1.35
2023-02-28T09:07:23.757Z,1.45
2023-02-28T09:10:00.772Z,1.48
2023-02-28T09:12:34.845Z,1.49
2023-02-28T09:15:03.473Z,1.51
2023-02-28T09:17:39.798Z,1.57
2023-02-28T09:20:09.730Z,1.62
2023-02-28T09:22:39.695Z,1.69
2023-02-28T09:25:08.531Z,1.76
2023-02-28T09:27:38.239Z,1.85
2023-02-28T09:30:07.809Z,1.91
2023-02-28T09:32:36.185Z,1.88
2023-02-28T09:35:05.055Z,1.92
2023-02-28T09:37:33.482Z,2.01
2023-02-28T09:40:04.843Z,2.09
2023-02-28T09:42:35.553Z,2.14
2023-02-28T09:45:14.099Z,2.17
2023-02-28T09:47:49.626Z,2.18
2023-02-28T09:50:25.256Z,2.17
2023-02-28T09:52:56.109Z,2.22
2023-02-28T09:55:35.386Z,2.28
2023-02-28T09:58:21.486Z,2.36
2023-02-28T10:00:59.111Z,2.41
2023-02-28T10:03:32.432Z,2.43
2023-02-28T10:06:07.126Z,2.44
2023-02-28T10:08:42.922Z,2.46
2023-02-28T10:11:17.610Z,2.49
2023-02-28T10:13:53.532Z,2.49
2023-02-28T10:16:27.906Z,2.45
2023-02-28T10:19:01.250Z,2.41
2023-02-28T10:21:36.054Z,2.37
2023-02-28T10:24:14.763Z,2.30
2023-02-28T10:26:47.382Z,2.20
2023-02-28T10:29:16.072Z,2.16
2023-02-28T10:31:44.968Z,2.11
2023-02-28T10:34:14.871Z,2.09
2023-02-28T10:36:45.222Z,2.07
2023-02-28T10:39:39.440Z,2.03
2023-02-28T10:42:22.609Z,1.92
2023-02-28T10:44:51.206Z,1.89
2023-02-28T10:47:21.931Z,1.89
2023-02-28T10:49:55.962Z,1.92
2023-02-28T10:52:40.831Z,1.97
2023-02-28T10:55:23.764Z,2.06
2023-02-28T10:57:54.824Z,2.13
2023-02-28T11:00:26.385Z,2.19
2023-02-28T11:02:54.712Z,2.22
2023-02-28T11:05:30.992Z,2.22
2023-02-28T11:08:05.781Z,2.25
2023-02-28T11:10:35.728Z,2.27
2023-02-28T11:13:05.700Z,2.30
2023-02-28T11:15:35.721Z,2.35
2023-02-28T11:18:19.139Z,2.42
2023-02-28T11:20:51.624Z,2.46
2023-02-28T11:23:22.152Z,2.45
2023-02-28T11:25:54.767Z,2.45
2023-02-28T11:28:31.977Z,2.45
2023-02-28T11:31:06.477Z,2.50
2023-02-28T11:33:43.572Z,2.51
2023-02-28T11:36:14.761Z,2.50
2023-02-28T11:38:43.292Z,2.51
2023-02-28T11:41:24.653Z,2.52
2023-02-28T11:44:06.714Z,2.55
2023-02-28T11:46:42.984Z,2.54
2023-02-28T11:49:24.769Z,2.56
2023-02-28T11:52:00.745Z,2.59
2023-02-28T11:54:55.898Z,2.60
2023-02-28T11:57:38.054Z,2.60
2023-02-28T12:00:31.458Z,2.59
2023-02-28T12:03:13.865Z,2.55
2023-02-28T12:05:47.865Z,2.55
2023-02-28T12:08:33.837Z,2.49
2023-02-28T12:11:11.289Z,2.50
2023-02-28T12:13:50.594Z,2.52
2023-02-28T12:16:33.226Z,2.55
2023-02-28T12:19:19.849Z,2.56
2023-02-28T12:22:14.977Z,2.55
2023-02-28T12:25:30.716Z,2.59
2023-02-28T12:27:59.163Z,2.58
2023-02-28T12:30:30.727Z,2.54
2023-02-28T12:33:06.414Z,2.50
2023-02-28T12:35:37.045Z,2.50
2023-02-28T12:38:10.887Z,2.60
2023-02-28T12:40:47.300Z,2.62
2023-02-28T12:43:19.112Z,2.58
2023-02-28T12:45:50.751Z,2.63
2023-02-28T12:48:27.994Z,2.71
2023-02-28T12:50:56.874Z,2.74
2023-02-28T12:53:30.770Z,2.73
2023-02-28T12:56:11.887Z,2.73
2023-02-28T12:58:44.864Z,2.75
2023-02-28T13:01:45.025Z,2.79
2023-02-28T13:05:03.943Z,2.88
2023-02-28T13:08:00.318Z,2.98
2023-02-28T13:10:41.474Z,2.99
2023-02-28T13:13:17.075Z,2.96
2023-02-28T13:16:00.943Z,3.01
2023-02-28T13:18:40.641Z,3.03
2023-02-28T13:21:11.457Z,3.09
2023-02-28T13:23:59.540Z,3.18
2023-02-28T13:27:04.995Z,3.30
2023-02-28T13:29:36.160Z,3.45
2023-02-28T13:32:34.054Z,3.61
2023-02-28T13:35:30.255Z,3.65
2023-02-28T13:38:17.182Z,3.61
2023-02-28T13:40:47.136Z,3.72
2023-02-28T13:43:25.251Z,3.84
2023-02-28T13:46:14.741Z,4.03
2023-02-28T13:48:43.316Z,4.19
2023-02-28T13:51:41.697Z,4.33
2023-02-28T13:54:26.791Z,4.44
2023-02-28T13:57:08.860Z,4.53
2023-02-28T13:59:48.116Z,4.62
2023-02-28T14:02:46.094Z,4.70
2023-02-28T14:05:17.878Z,4.74
2023-02-28T14:07:50.118Z,4.74
2023-02-28T14:10:27.425Z,4.79
2023-02-28T14:13:14.081Z,4.81
2023-02-28T14:15:51.600Z,4.83
2023-02-28T14:18:26.945Z,4.78
2023-02-28T14:21:00.925Z,4.75
2023-02-28T14:23:45.923Z,4.70
2023-02-28T14:26:31.424Z,4.69
2023-02-28T14:29:19.561Z,4.69
2023-02-28T14:31:56.727Z,4.66
2023-02-28T14:34:44.433Z,4.66
2023-02-28T14:37:18.417Z,4.68
2023-02-28T14:39:47.093Z,4.70
2023-02-28T14:42:31.388Z,4.67
2023-02-28T14:45:01.441Z,4.64
2023-02-28T14:47:33.105Z,4.66
2023-02-28T14:50:02.969Z,4.61
2023-02-28T14:52:35.233Z,4.61
2023-02-28T14:55:08.325Z,4.59
2023-02-28T14:57:43.863Z,4.54
2023-02-28T15:00:23.661Z,4.49
2023-02-28T15:02:53.084Z,4.45
2023-02-28T15:05:31.920Z,4.42
2023-02-28T15:08:08.854Z,4.40
2023-02-28T15:10:40.770Z,4.39
2023-02-28T15:13:13.291Z,4.37
2023-02-28T15:16:01.289Z,4.29
2023-02-28T15:18:39.675Z,4.24
2023-02-28T15:21:13.542Z,4.16
2023-02-28T15:23:45.013Z,4.16
2023-02-28T15:26:18.327Z,4.08
2023-02-28T15:28:47.415Z,4.08
2023-02-28T15:31:26.489Z,4.07
2023-02-28T15:33:56.529Z,4.01
2023-02-28T15:36:29.735Z,3.99
2023-02-28T15:39:07.096Z,3.98
2023-02-28T15:41:44.222Z,3.92
2023-02-28T15:44:27.701Z,3.91
2023-02-28T15:47:03.650Z,3.87
2023-02-28T15:49:45.023Z,3.83
2023-02-28T15:52:18.614Z,3.79
2023-02-28T15:54:48.435Z,3.73
2023-02-28T15:57:22.590Z,3.64
2023-02-28T15:59:56.484Z,3.55
2023-02-28T16:02:33.874Z,3.50
2023-02-28T16:05:19.804Z,3.34
2023-02-28T16:07:49.388Z,3.21
2023-02-28T16:10:17.988Z,3.11
2023-02-28T16:12:46.599Z,3.06
2023-02-28T16:15:21.658Z,3.02
2023-02-28T16:17:51.791Z,2.95
2023-02-28T16:20:23.969Z,2.90
2023-02-28T16:22:53.160Z,2.80
2023-02-28T16:25:26.054Z,2.72
2023-02-28T16:27:56.109Z,2.69
2023-02-28T16:30:28.567Z,2.66
2023-02-28T16:32:58.222Z,2.61
2023-02-28T16:35:27.097Z,2.49
2023-02-28T16:37:57.877Z,2.43
2023-02-28T16:40:31.209Z,2.30
2023-02-28T16:43:02.426Z,2.27
2023-02-28T16:45:31.842Z,2.25
2023-02-28T16:48:04.524Z,2.26
2023-02-28T16:50:36.593Z,2.27
2023-02-28T16:53:10.428Z,2.26
2023-02-28T16:55:41.306Z,2.26
2023-02-28T16:58:16.694Z,2.27
2023-02-28T17:00:47.386Z,2.21
2023-02-28T17:03:32.643Z,2.14
2023-02-28T17:06:02.985Z,2.07
2023-02-28T17:08:33.519Z,2.06
2023-02-28T17:11:02.634Z,2.08
2023-02-28T17:13:30.945Z,2.05
2023-02-28T17:15:59.758Z,1.96
2023-02-28T17:18:34.660Z,1.94
2023-02-28T17:21:03.233Z,1.94
2023-02-28T17:23:31.562Z,1.94
2023-02-28T17:26:02.693Z,1.97
2023-02-28T17:28:33.638Z,2.00
2023-02-28T17:31:02.029Z,1.99
2023-02-28T17:33:32.121Z,1.93
2023-02-28T17:36:00.775Z,1.91
2023-02-28T17:38:29.204Z,1.88
2023-02-28T17:40:58.413Z,1.90
2023-02-28T17:43:27.168Z,1.90
2023-02-28T17:45:56.540Z,1.88
2023-02-28T17:48:24.989Z,1.83
2023-02-28T17:50:54.914Z,1.81
2023-02-28T17:53:24.131Z,1.80
2023-02-28T17:55:52.808Z,1.76
2023-02-28T17:58:21.153Z,1.69
2023-02-28T18:00:54.884Z,1.68
2023-02-28T18:03:24.767Z,1.70
2023-02-28T18:05:54.532Z,1.70
2023-02-28T18:08:23.148Z,1.73
2023-02-28T18:10:51.485Z,1.74
2023-02-28T18:13:20.529Z,1.73
2023-02-28T18:15:51.050Z,1.74
2023-02-28T18:18:19.571Z,1.76
2023-02-28T18:20:50.922Z,1.77
2023-02-28T18:23:21.561Z,1.70
2023-02-28T18:25:49.950Z,1.71
2023-02-28T18:28:18.575Z,1.75
2023-02-28T18:30:48.493Z,1.71
2023-02-28T18:33:16.875Z,1.69
2023-02-28T18:35:46.876Z,1.70
2023-02-28T18:38:17.014Z,1.73
2023-02-28T18:40:54.207Z,1.68
2023-02-28T18:43:22.551Z,1.69
2023-02-28T18:45:50.866Z,1.73
2023-02-28T18:48:19.939Z,1.76
2023-02-28T18:50:48.334Z,1.73
2023-02-28T18:53:17.146Z,1.72
2023-02-28T18:55:47.463Z,1.74
2023-02-28T18:58:16.135Z,1.74
2023-02-28T19:00:44.505Z,1.74
2023-02-28T19:03:14.017Z,1.74
2023-02-28T19:05:42.366Z,1.73
2023-02-28T19:08:10.685Z,1.74
2023-02-28T19:10:40.191Z,1.75
2023-02-28T19:13:10.225Z,1.73
2023-02-28T19:15:38.991Z,1.75
2023-02-28T19:18:14.296Z,1.77
2023-02-28T19:20:44.140Z,1.79
2023-02-28T19:23:19.213Z,1.79
2023-02-28T19:25:48.154Z,1.81
2023-02-28T19:28:18.084Z,1.80
2023-02-28T19:30:48.000Z,1.82
2023-02-28T19:33:16.439Z,1.83
2023-02-28T19:35:44.791Z,1.84
2023-02-28T19:38:13.363Z,1.84
2023-02-28T19:40:41.869Z,1.81
2023-02-28T19:43:10.665Z,1.79
2023-02-28T19:45:40.654Z,1.77
2023-02-28T19:48:10.007Z,1.78
2023-02-28T19:50:38.565Z,1.81
2023-02-28T19:53:06.933Z,1.83
2023-02-28T19:55:35.361Z,1.84
2023-02-28T19:58:03.742Z,1.82
2023-02-28T20:00:32.149Z,1.79
2023-02-28T20:03:02.133Z,1.79
2023-02-28T20:05:30.485Z,1.80
2023-02-28T20:07:59.490Z,1.76
2023-02-28T20:10:27.973Z,1.74
2023-02-28T20:12:56.300Z,1.73
2023-02-28T20:15:24.658Z,1.71
2023-02-28T20:17:52.964Z,1.64
2023-02-28T20:20:22.823Z,1.61
2023-02-28T20:22:51.217Z,1.55
2023-02-28T20:25:19.632Z,1.51
2023-02-28T20:27:47.938Z,1.51
2023-02-28T20:30:16.545Z,1.51
2023-02-28T20:32:45.012Z,1.53
2023-02-28T20:35:13.296Z,1.56
2023-02-28T20:37:43.321Z,1.59
2023-02-28T20:40:13.140Z,1.58
2023-02-28T20:42:41.488Z,1.58
2023-02-28T20:45:11.060Z,1.59
2023-02-28T20:47:42.516Z,1.56
2023-02-28T20:50:12.514Z,1.61
2023-02-28T20:52:42.194Z,1.63
2023-02-28T20:55:10.976Z,1.61
2023-02-28T20:57:40.324Z,1.60
2023-02-28T21:00:10.980Z,1.58
2023-02-28T21:02:39.554Z,1.57
2023-02-28T21:05:08.341Z,1.56
2023-02-28T21:07:36.671Z,1.57
2023-02-28T21:10:09.148Z,1.57
2023-02-28T21:12:37.784Z,1.57
2023-02-28T21:15:07.008Z,1.59
2023-02-28T21:17:35.531Z,1.57
2023-02-28T21:20:04.515Z,1.55
2023-02-28T21:22:32.891Z,1.48
2023-02-28T21:25:01.290Z,1.47
2023-02-28T21:27:30.943Z,1.46
2023-02-28T21:29:59.314Z,1.46
2023-02-28T21:32:27.733Z,1.42
2023-02-28T21:34:56.104Z,1.42
2023-02-28T21:37:24.402Z,1.39
2023-02-28T21:39:52.979Z,1.40
2023-02-28T21:42:21.345Z,1.42
2023-02-28T21:44:51.329Z,1.44
2023-02-28T21:47:19.799Z,1.46
2023-02-28T21:49:48.140Z,1.48
2023-02-28T21:52:16.452Z,1.47
2023-02-28T21:54:44.919Z,1.46
2023-02-28T21:57:14.087Z,1.47
2023-02-28T21:59:43.026Z,1.47
2023-02-28T22:02:13.719Z,1.47
2023-02-28T22:04:42.432Z,1.49
2023-02-28T22:07:10.839Z,1.47
2023-02-28T22:09:39.275Z,1.47
2023-02-28T22:12:08.514Z,1.46
2023-02-28T22:14:39.751Z,1.45
2023-02-28T22:17:08.177Z,1.46
2023-02-28T22:19:38.058Z,1.46
2023-02-28T22:22:06.463Z,1.49
2023-02-28T22:24:42.969Z,1.51
2023-02-28T22:27:11.373Z,1.49
2023-02-28T22:29:39.919Z,1.49
2023-02-28T22:32:11.051Z,1.49
2023-02-28T22:34:40.983Z,1.49
2023-02-28T22:37:09.769Z,1.50
2023-02-28T22:39:38.149Z,1.50
2023-02-28T22:42:08.035Z,1.52
2023-02-28T22:44:36.902Z,1.53
2023-02-28T22:47:05.262Z,1.54
2023-02-28T22:49:35.001Z,1.55
2023-02-28T22:52:05.138Z,1.54
2023-02-28T22:54:33.588Z,1.54
2023-02-28T22:57:01.933Z,1.55
2023-02-28T22:59:30.261Z,1.56
2023-02-28T23:01:58.602Z,1.56
2023-02-28T23:04:27.062Z,1.55
2023-02-28T23:06:55.403Z,1.56
2023-02-28T23:09:25.159Z,1.56
2023-02-28T23:11:53.462Z,1.56
2023-02-28T23:14:22.782Z,1.55
2023-02-28T23:16:54.058Z,1.57
2023-02-28T23:19:26.474Z,1.57
2023-02-28T23:21:55.170Z,1.57
2023-02-28T23:24:27.100Z,1.57
2023-02-28T23:26:58.721Z,1.61
2023-02-28T23:29:27.872Z,1.60
2023-02-28T23:31:56.605Z,1.60
2023-02-28T23:34:28.022Z,1.60
2023-02-28T23:36:56.893Z,1.61
2023-02-28T23:39:27.971Z,1.62
2023-02-28T23:41:56.759Z,1.58
2023-02-28T23:44:25.789Z,1.54
2023-02-28T23:46:54.820Z,1.53
2023-02-28T23:49:23.746Z,1.56
2023-02-28T23:51:54.380Z,1.57
2023-02-28T23:54:22.981Z,1.58
2023-02-28T23:56:52.744Z,1.61
2023-02-28T23:59:21.057Z,1.61
